Latest Weather Observations for Rolleston Airport

IDQ60801

Issued at 8:02 pm EST Saturday 23 May 2015 (issued every 30 minutes, with the page automatically refreshed every 10 minutes)

About weather observations | Map of weather stations | Latest weather observations for QLD | Other Formats
Station Details ID: 035129 Name: ROLLESTON AIRPORT Lat: -24.46 Lon: 148.63 Height: 219.45 m
Data from the previous 72 hours. | See also: Recent months at Rolleston Airport
Date/Time
EST
Temp
°C
App
Temp
°C
Dew
Point
Rel
Hum
%
Delta-T
°C
Wind Press
QNH
hPa
Press
MSL
hPa
Rain
since 9 am
mm
Dir
 
Spd
km/h
Gust
km/h
Spd
kts
Gust
kts
23/08:00pm 14.5 12.1 5.3 54 4.4 SE 7 9 4 5 1023.8 1023.3 0.0
23/07:30pm 16.0 12.9 5.6 50 5.0 SE 11 11 6 6 1023.5 1023.0 0.0
23/07:00pm 17.4 14.0 5.7 46 5.7 ESE 13 15 7 8 1023.1 1022.5 0.0
23/06:30pm 18.1 15.1 6.0 45 6.0 ESE 11 15 6 8 1022.9 1022.3 0.0
23/06:00pm 19.0 15.9 5.5 41 6.6 ESE 11 15 6 8 1022.6 1022.0 0.0
23/05:30pm 20.1 17.0 5.4 38 7.3 ESE 11 15 6 8 1022.2 1021.6 0.0
23/05:00pm 21.9 17.7 5.8 35 8.1 SE 17 22 9 12 1021.8 1021.2 0.0
23/04:30pm 22.8 18.5 5.3 32 8.8 ESE 17 22 9 12 1021.6 1021.0 0.0
23/04:00pm 23.1 19.3 6.0 33 8.7 SE 15 24 8 13 1021.5 1020.9 0.0
23/03:30pm 23.6 19.8 6.0 32 9.1 SE 15 20 8 11 1021.3 1020.8 0.0
23/03:00pm 23.9 19.9 6.7 33 9.0 SE 17 28 9 15 1021.2 1020.7 0.0
23/02:30pm 23.3 18.9 6.6 34 8.7 SE 19 30 10 16 1021.3 1020.8 0.0
23/02:00pm 23.3 18.4 7.0 35 8.5 SE 22 30 12 16 1021.5 1020.9 0.0
23/01:30pm 23.1 18.7 6.4 34 8.6 SE 19 30 10 16 1021.8 1021.2 0.0
23/01:00pm 22.7 17.8 6.9 36 8.2 SE 22 33 12 18 1022.1 1021.5 0.0
23/12:30pm 22.2 16.5 6.8 37 8.0 SE 26 37 14 20 1022.7 1022.1 0.0
23/12:00pm 21.8 17.2 6.5 37 7.8 SE 20 39 11 21 1023.2 1022.6 0.0
23/11:30am 21.3 16.1 7.2 40 7.3 SE 24 39 13 21 1023.4 1022.9 0.0
23/11:00am 19.4 15.1 7.8 47 6.0 SSE 20 28 11 15 1024.1 1023.6 0.0
23/10:30am 18.8 14.8 8.2 50 5.5 SSE 19 32 10 17 1024.6 1024.1 0.0
23/10:00am 17.7 14.0 8.0 53 5.0 SSE 17 24 9 13 1024.8 1024.3 0.0
23/09:30am 16.3 11.6 7.8 57 4.3 SSE 22 32 12 17 1024.9 1024.4 0.0
23/09:00am 15.1 11.0 7.9 62 3.6 S 19 28 10 15 1024.7 1024.2 0.0
23/08:30am 13.8 10.1 8.0 68 2.9 S 17 26 9 14 1024.6 1024.1 0.0
23/08:00am 11.4 9.4 7.3 76 2.0 SSE 7 11 4 6 1024.1 1023.6 0.0
23/07:30am 9.2 7.3 6.6 84 1.2 SSE 6 7 3 4 1023.7 1023.2 0.0
23/07:00am 6.6 4.4 5.4 92 0.5 S 6 6 3 3 1023.4 1022.9 0.0
23/06:30am 5.5 3.4 3.8 89 0.7 S 4 6 2 3 1022.7 1022.1 0.0
23/06:00am 5.6 3.2 4.1 90 0.6 S 6 7 3 4 1022.2 1021.6 0.0
23/05:30am 5.0 2.3 3.7 91 0.6 SSE 7 9 4 5 1022.2 1021.6 0.0
23/05:00am 4.4 1.7 2.8 89 0.7 S 6 7 3 4 1022.1 1021.5 0.0
23/04:30am 4.7 2.0 2.9 88 0.7 SSE 6 6 3 3 1022.2 1021.6 0.0
23/04:00am 4.9 3.0 2.8 86 0.9 SSW 2 4 1 2 1022.3 1021.7 0.0
23/03:30am 6.0 4.7 4.0 87 0.9 CALM 0 0 0 0 1022.5 1021.9 0.0
23/03:00am 6.5 5.2 4.3 86 1.0 CALM 0 0 0 0 1022.9 1022.3 0.0
23/02:30am 6.7 5.5 4.5 86 1.0 CALM 0 0 0 0 1023.1 1022.5 0.0
23/02:00am 6.4 5.0 3.6 82 1.2 CALM 0 0 0 0 1023.4 1022.9 0.0
23/01:30am 6.7 4.5 3.5 80 1.4 SSE 4 6 2 3 1023.5 1023.0 0.0
23/01:00am 7.0 5.2 3.4 78 1.5 ENE 2 6 1 3 1023.6 1023.1 0.0
23/12:30am 7.7 6.3 3.4 74 1.9 CALM 0 0 0 0 1023.7 1023.2 0.0
23/12:00am 9.1 8.0 5.1 76 1.8 CALM 0 0 0 0 1023.8 1023.3 0.0
 
Date/Time
EST
Temp
°C
App
Temp
°C
Dew
Point
Rel
Hum
%
Delta-T
°C
Wind Press
QNH
hPa
Press
MSL
hPa
Rain
since 9 am
mm
Dir
 
Spd
km/h
Gust
km/h
Spd
kts
Gust
kts
22/11:30pm 8.8 7.1 3.8 71 2.2 SSE 2 4 1 2 1023.8 1023.3 0.0
22/11:00pm 10.2 8.3 5.0 70 2.4 SSW 4 7 2 4 1023.9 1023.4 0.0
22/10:30pm 9.7 7.7 4.3 69 2.4 SSE 4 6 2 3 1024.1 1023.6 0.0
22/10:00pm 9.9 7.5 4.1 67 2.6 SSE 6 7 3 4 1024.3 1023.8 0.0
22/09:30pm 11.9 9.5 5.3 64 3.1 S 7 13 4 7 1024.2 1023.7 0.0
22/09:00pm 12.0 8.1 5.4 64 3.1 SSE 15 20 8 11 1024.1 1023.6 0.0
22/08:30pm 12.9 8.3 5.6 61 3.5 SSE 19 28 10 15 1023.9 1023.4 0.0
22/08:00pm 13.7 9.1 5.6 58 3.8 SSE 19 28 10 15 1023.4 1022.9 0.0
22/07:30pm 13.9 9.5 5.0 55 4.2 SSE 17 28 9 15 1022.8 1022.2 0.0
22/07:00pm 14.9 10.5 4.9 51 4.7 SSE 17 24 9 13 1022.2 1021.6 0.0
22/06:30pm 15.5 11.1 4.8 49 5.1 SSE 17 24 9 13 1021.8 1021.2 0.0
22/06:00pm 16.4 11.9 4.4 45 5.7 SSE 17 24 9 13 1021.2 1020.7 0.0
22/05:30pm 18.0 14.4 3.1 37 7.0 S 11 17 6 9 1020.7 1020.2 0.0
22/05:00pm 19.1 14.4 3.3 35 7.5 SSW 17 24 9 13 1020.2 1019.7 0.0
22/04:30pm 19.7 15.4 3.0 33 7.9 SSW 15 28 8 15 1019.8 1019.3 0.0
22/04:00pm 20.2 15.0 2.5 31 8.3 SSW 19 30 10 16 1019.6 1019.1 0.0
22/03:30pm 21.0 16.0 1.3 27 9.1 SSW 17 35 9 19 1019.5 1019.0 0.0
22/03:00pm 21.4 16.4 1.1 26 9.4 SSW 17 30 9 16 1019.5 1019.0 0.0
22/02:30pm 20.8 15.7 0.6 26 9.2 S 17 26 9 14 1019.8 1019.3 0.0
22/02:00pm 20.6 15.9 1.0 27 9.0 SW 15 35 8 19 1019.9 1019.4 0.0
22/01:30pm 20.3 15.2 0.7 27 8.9 S 17 28 9 15 1020.3 1019.8 0.0
22/01:00pm 20.2 14.7 0.6 27 8.8 SSW 19 35 10 19 1020.7 1020.2 0.0
22/12:30pm 19.2 14.0 -0.2 27 8.6 S 17 32 9 17 1021.1 1020.6 0.0
22/12:00pm 19.1 13.8 2.0 32 7.9 SSW 19 30 10 16 1021.7 1021.1 0.0
22/11:30am 19.3 15.0 3.1 34 7.7 S 15 24 8 13 1022.2 1021.6 0.0
22/11:00am 18.2 13.6 3.7 38 6.9 S 17 26 9 14 1022.5 1021.9 0.0
22/10:30am 17.4 12.4 3.7 40 6.5 SSW 19 30 10 16 1022.7 1022.1 0.0
22/10:00am 16.6 11.7 4.0 43 5.9 SSW 19 30 10 16 1022.9 1022.3 0.0
22/09:30am 16.1 11.0 3.9 44 5.7 SSW 20 32 11 17 1022.9 1022.3 0.0
22/09:00am 15.8 11.4 4.8 48 5.2 S 17 32 9 17 1022.7 1022.1 0.0
22/08:30am 14.9 11.6 6.5 57 4.1 S 13 20 7 11 1022.5 1021.9 0.0
22/08:00am 13.6 10.9 7.2 65 3.1 S 11 19 6 10 1022.3 1021.7 0.0
22/07:30am 12.6 10.3 7.5 71 2.5 S 9 13 5 7 1022.0 1021.4 0.0
22/07:00am 11.1 8.9 7.8 80 1.6 SSE 9 13 5 7 1021.6 1021.0 0.0
22/06:30am 11.9 8.9 7.6 75 2.1 SSE 13 19 7 10 1021.2 1020.7 0.0
22/06:00am 12.7 9.9 8.4 75 2.2 SSE 13 20 7 11 1020.8 1020.3 0.0
22/05:30am 13.2 10.4 8.7 74 2.3 SSE 13 19 7 10 1020.3 1019.8 0.0
22/05:00am 13.4 11.0 8.5 72 2.5 S 11 17 6 9 1020.1 1019.6 0.0
22/04:30am 14.5 12.1 8.5 67 3.1 S 11 20 6 11 1019.8 1019.3 0.0
22/04:00am 14.4 12.3 9.6 73 2.5 SSW 11 17 6 9 1019.7 1019.2 0.0
22/03:30am 13.5 12.6 11.2 86 1.2 SSW 7 13 4 7 1019.6 1019.1 0.0
22/03:00am 14.3 13.7 11.8 85 1.4 S 6 7 3 4 1019.4 1018.9 0.0
22/02:30am 14.7 14.2 12.0 84 1.5 S 6 9 3 5 1019.5 1019.0 0.0
22/02:00am 15.5 15.5 12.3 81 1.8 S 4 6 2 3 1019.7 1019.2 0.0
22/01:30am 16.1 15.2 12.7 80 1.9 SSE 9 11 5 6 1019.7 1019.2 0.0
22/01:00am 16.4 15.7 13.1 81 1.9 SE 9 15 5 8 1019.8 1019.3 0.0
22/12:30am 16.6 15.2 13.3 81 1.9 SSE 13 17 7 9 1019.8 1019.3 0.0
22/12:00am 16.7 15.2 13.2 80 2.0 SSE 13 17 7 9 1019.8 1019.3 0.0
 
Date/Time
EST
Temp
°C
App
Temp
°C
Dew
Point
Rel
Hum
%
Delta-T
°C
Wind Press
QNH
hPa
Press
MSL
hPa
Rain
since 9 am
mm
Dir
 
Spd
km/h
Gust
km/h
Spd
kts
Gust
kts
21/11:30pm 16.7 14.9 13.2 80 2.0 SSE 15 20 8 11 1020.0 1019.5 0.0
21/11:00pm 16.9 15.1 13.4 80 2.0 SE 15 20 8 11 1020.2 1019.7 0.0
21/10:30pm 17.0 14.9 13.5 80 2.0 SE 17 24 9 13 1020.5 1020.0 0.0
21/10:00pm 17.1 15.0 13.6 80 2.0 SE 17 20 9 11 1020.3 1019.8 0.0
21/09:30pm 17.5 15.8 13.6 78 2.2 SE 15 20 8 11 1020.0 1019.5 0.0
21/09:00pm 18.2 16.5 13.5 74 2.7 SE 15 22 8 12 1019.6 1019.1 0.0
21/08:30pm 18.7 16.4 12.9 69 3.3 SSE 17 20 9 11 1019.4 1018.9 0.0
21/08:00pm 18.9 17.1 12.2 65 3.8 SE 13 17 7 9 1019.2 1018.6 0.0
21/07:30pm 19.5 18.4 12.0 62 4.2 SE 9 11 5 6 1019.0 1018.4 0.0
21/07:00pm 19.7 18.8 11.5 59 4.6 SSE 7 11 4 6 1018.7 1018.1 0.0
21/06:30pm 19.8 18.2 11.6 59 4.6 SSE 11 15 6 8 1018.4 1017.8 0.0
21/06:00pm 19.8 17.1 11.6 59 4.6 S 17 22 9 12 1018.0 1017.4 0.0
21/05:30pm 19.9 17.6 11.9 60 4.5 S 15 24 8 13 1017.9 1017.3 0.0
21/05:00pm 20.1 16.5 11.8 59 4.6 SSW 22 35 12 19 1017.9 1017.3 0.0
21/04:30pm 20.9 17.0 12.1 57 5.0 SSW 24 35 13 19 1017.4 1016.8 0.0
21/04:00pm 21.7 18.6 12.3 55 5.4 SSW 20 33 11 18 1016.8 1016.2 0.0
21/03:30pm 23.3 20.2 12.3 50 6.3 S 20 30 11 16 1016.5 1016.0 0.0
21/03:00pm 25.4 22.4 12.6 45 7.5 SSW 20 28 11 15 1016.2 1015.7 0.0
21/02:30pm 26.5 25.6 14.9 49 7.1 WSW 13 19 7 10 1016.2 1015.7 0.0
21/02:00pm 27.5 27.6 15.5 48 7.4 W 9 15 5 8 1016.4 1015.9 0.0
21/01:30pm 27.4 27.7 15.1 47 7.5 WNW 7 13 4 7 1016.5 1016.0 0.0
21/01:00pm 27.5 28.0 15.5 48 7.4 WSW 7 11 4 6 1017.1 1016.5 0.0
21/12:30pm 25.8 26.3 14.9 51 6.6 W 6 11 3 6 1018.0 1017.4 0.0
21/12:00pm 26.5 27.4 15.2 49 6.9 WNW 4 7 2 4 1018.2 1017.6 0.0
21/11:30am 24.9 25.2 14.4 52 6.3 WSW 6 13 3 7 1019.0 1018.4 0.0
21/11:00am 24.5 25.4 15.1 55 5.7 WNW 4 6 2 3 1019.4 1018.9 0.0
21/10:30am 25.1 26.7 16.0 57 5.6 SSW 2 6 1 3 1019.7 1019.2 0.0
21/10:00am 22.6 22.8 14.7 61 4.7 SW 7 11 4 6 1020.3 1019.8 0.0
21/09:30am 22.0 22.5 13.9 60 4.8 S 4 9 2 5 1020.4 1019.9 0.0
21/09:00am 21.7 21.3 13.1 58 5.0 SSE 7 9 4 5 1020.3 1019.8 0.0
21/08:30am 20.0 19.4 12.3 61 4.4 SE 7 11 4 6 1020.1 1019.6 0.0
21/08:00am 17.8 17.9 12.7 72 2.9 SSE 4 9 2 5 1020.2 1019.7 0.0
21/07:30am 14.4 14.2 10.6 78 2.0 S 2 4 1 2 1020.0 1019.5 0.0
21/07:00am 13.0 12.3 10.2 83 1.5 S 4 6 2 3 1020.0 1019.5 0.0
21/06:30am 13.2 12.0 10.2 82 1.6 SSE 7 9 4 5 1019.5 1019.0 0.0
21/06:00am 13.4 12.0 10.9 85 1.3 SE 9 9 5 5 1019.0 1018.4 0.0
21/05:30am 13.7 12.4 11.4 86 1.2 SE 9 11 5 6 1018.6 1018.0 0.0
21/05:00am 12.3 10.8 9.0 80 1.7 S 7 9 4 5 1018.8 1018.2 0.0
21/04:30am 13.3 12.6 10.1 81 1.7 SSE 4 4 2 2 1018.6 1018.0 0.0
21/04:00am 14.3 13.7 11.6 84 1.5 SE 6 6 3 3 1018.3 1017.7 0.0
21/03:30am 14.0 13.3 10.2 78 2.0 SSE 4 6 2 3 1018.6 1018.0 0.0
21/03:00am 14.9 14.4 12.0 83 1.6 SSE 6 7 3 4 1018.6 1018.0 0.0
21/02:30am 14.4 14.8 11.2 81 1.7 CALM 0 0 0 0 1018.8 1018.2 0.0
21/02:00am 14.6 14.8 10.6 77 2.1 CALM 0 0 0 0 1018.8 1018.2 0.0
21/01:30am 16.0 15.9 12.2 78 2.1 SSE 4 6 2 3 1018.9 1018.3 0.0
21/01:00am 16.6 17.1 12.8 78 2.1 S 2 4 1 2 1018.7 1018.1 0.0
21/12:30am 15.5 15.9 11.1 75 2.4 CALM 0 0 0 0 1018.9 1018.3 0.0
21/12:00am 16.1 16.5 11.3 73 2.6 CALM 0 2 0 1 1019.0 1018.4 0.0
 
Date/Time
EST
Temp
°C
App
Temp
°C
Dew
Point
Rel
Hum
%
Delta-T
°C
Wind Press
QNH
hPa
Press
MSL
hPa
Rain
since 9 am
mm
Dir
 
Spd
km/h
Gust
km/h
Spd
kts
Gust
kts
20/11:30pm 16.4 16.0 11.1 71 2.9 N 4 6 2 3 1018.9 1018.3 0.0
20/11:00pm 17.0 16.5 10.8 67 3.3 SSE 4 7 2 4 1019.0 1018.4 0.0
20/10:30pm 18.2 18.4 12.0 67 3.5 SW 2 4 1 2 1018.9 1018.3 0.0
20/10:00pm 19.9 19.7 13.1 65 3.9 NE 6 7 3 4 1018.8 1018.2 0.0
20/09:30pm 19.8 19.3 12.8 64 4.0 NE 7 9 4 5 1018.8 1018.2 0.0
20/09:00pm 20.2 20.1 12.2 60 4.5 NNE 4 6 2 3 1019.0 1018.4 0.0
20/08:30pm 20.8 20.7 12.0 57 5.0 NE 4 6 2 3 1018.9 1018.3 0.0

Other Formats:

Comma delimited format used in spreadsheet applications
http://www.bom.gov.au/fwo/IDQ60801/IDQ60801.94396.axf

JavaScript Object Notation format (JSON) in row-major order
http://www.bom.gov.au/fwo/IDQ60801/IDQ60801.94396.json